Tiempo atmosférico en la estación meteorológica de Teruel, Teruel (900 m.)



Fecha
DESCASC
Temp. máxima en grados centígrados (hora)
DESCASC
Temp. mínima en grados centígrados (hora)
DESCASC
Temp. media en grados centígrados
DESCASC
Racha de viento máxima en m/sg (hora)
DESCASC
Velocidad máxima media en intervalos de 10 minutos(hora)
DESCASC
Precipitaciones diarias en mm
DESCASC
Precipitaciones de 00:00 a 06:00 en mm
DESCASC
Precipitaciones de 06:00 a 12:00 en mm
DESCASC
Precipitaciones de 12:00 a 18:00 en mm
DESCASC
Precipitaciones de 18:00 a 24:00 en mm
DESCASC
18-04-2019 13.8 (12:10) 6.6 (22:50) 10.2 9.17 (19:20) 4.72 (19:10) 25.2 0 0 0 25.2
17-04-2019 21.6 (15:20) 7.8 (07:30) 14.7 10.83 (17:50) 4.72 (14:20) 0 0 0 0 0
16-04-2019 21.7 (17:20) 6.4 (00:00) 14.1 8.06 (19:40) 3.61 (22:20) 0.8 0.8 0 0 0
15-04-2019 22.4 (14:00) 6 (00:00) 14.2 11.67 (14:50) 5.83 (16:00) 0.2 0 0 0 0.2
14-04-2019 23.2 (16:50) 0.5 (00:00) 11.9 7.5 (16:20) 3.33 (18:40) 0 0 0 0 0
13-04-2019 19.5 (16:50) -1.6 (-00:0) 8.9 6.39 (12:50) 2.78 (18:00) 0 0 0 0 0
12-04-2019 14.9 (18:20) 3.7 (00:00) 9.3 6.94 (10:00) 3.61 (15:20) 0 0 0 0 0
11-04-2019 13.8 (18:00) 4.9 (00:00) 9.4 10 (18:30) 4.72 (18:40) 0 0 0 0 0
10-04-2019 13.2 (15:30) 1.4 (00:00) 7.3 11.39 (11:20) 5 (10:50) 0.2 0 0 0 0.2
09-04-2019 12.5 (13:10) 2.6 (00:00) 7.5 10.83 (17:20) 5.83 (17:20) 1 0 0 1 0
08-04-2019 16.8 (16:20) 5.5 (00:00) 11.1 11.11 (17:10) 6.11 (17:30) 1.4 1.2 0.2 0 0
07-04-2019 11.8 (17:30) 1.3 (00:00) 6.6 10.83 (11:30) 5.28 (11:20) 0 0 0 0 0
06-04-2019 11.2 (15:00) 1 (00:00) 6.1 13.06 (15:40) 7.5 (15:30) 0.6 0 0 0.2 0.4
05-04-2019 11 (13:30) 3.6 (00:00) 7.3 12.5 (15:00) 6.11 (15:00) 0.4 0 0 0.2 0.2
04-04-2019 14.4 (17:50) -1.7 (-00:0) 6.3 10 (18:40) 5.83 (18:00) 0 0 0 0 0
03-04-2019 16.9 (14:40) 2.7 (23:59) 9.8 10.28 (16:40) 5.56 (12:30) 0 0 0 0 0
02-04-2019 16.4 (14:40) 5 (00:00) 10.7 10 (15:50) 6.39 (15:50) 1 0.6 0 0 0.4
01-04-2019 14.2 (17:10) 6.6 (00:00) 10.4 7.5 (17:10) 4.72 (15:30) 4.4 2.2 1.8 0 0.4
31-03-2019 7.7 (18:50) 3.2 (00:00) 5.4 4.72 (17:00) 2.5 (16:50) 20.6 0 2.2 11.6 6.8
30-03-2019 19.1 (15:50) -2.1 (-00:0) 8.5 7.5 (18:10) 3.33 (17:50) 0 0 0 0 0
29-03-2019 18.1 (14:10) -2.1 (-00:0) 8 9.72 (12:00) 3.89 (13:20) 0 0 0 0 0
28-03-2019 18.6 (17:00) -2.6 (-00:0) 8 7.78 (19:00) 3.33 (20:30) 0 0 0 0 0
27-03-2019 18.2 (16:20) -0.8 (-00:0) 8.7 8.33 (17:00) 3.61 (18:00) 0 0 0 0 0
26-03-2019 19.7 (16:10) -2 (-00:0) 8.9 10.28 (16:30) 5.28 (16:50) 0 0 0 0 0
25-03-2019 19.6 (16:20) -1 (-00:0) 9.3 6.67 (13:40) 3.33 (17:10) 0 0 0 0 0
24-03-2019 21.8 (15:00) -1.5 (-00:0) 10.1 7.5 (14:20) 3.61 (18:00) 0 0 0 0 0
23-03-2019 21.1 (14:20) -0.6 (-00:0) 10.3 9.72 (16:40) 4.44 (17:30) 0 0 0 0 0
22-03-2019 18.1 (16:40) -3.3 (-00:0) 7.4 7.78 (17:10) 3.89 (17:10) 0 0 0 0 0
21-03-2019 16.3 (15:10) -4.1 (-00:0) 6.1 14.17 (15:00) 4.44 (15:00) 0 0 0 0 0

Gráficas

Temp. máximas Temp. mínimas Temp. medias Precipitaciones Rachas de viento máximas Velocidades máximas media en intervalos de 10 minutos

Datos horarios

Fecha y hora oficial Temperatura (ºC) Velocidad del viento (km/h) Dirección del viento Racha (km/h) Dirección de racha Precipitación (mm) Presión (hPa) Tendencia (hPa) Humedad (%)
2019-04-19 23:00:00 10 4 Norte 15 Oeste 0 917.2 2 78
2019-04-19 22:00:00 9.4 5 Sudoeste 10 Sur 0 916.8 2.1 83
2019-04-19 21:00:00 9.6 4 Noroeste 14 Sur 0 915.9 1.6 81
2019-04-19 20:00:00 10.2 5 Sudeste 22 Nordeste 0.2 915.2 1.4 80
2019-04-19 19:00:00 10.1 12 Oeste 19 Sudoeste 0.4 914.7 0.9 88
2019-04-19 18:00:00 10 3 Nordeste 22 Sudeste 0.8 914.3 0.9 91
2019-04-19 17:00:00 10 6 Sur 20 Sur 0 913.8 0.7 88
2019-04-19 16:00:00 10.1 12 Sur 19 Este 0 913.8 1.2 89
2019-04-19 15:00:00 10.2 6 Sudeste 28 Sudeste 0 913.4 0.9 91
2019-04-19 14:00:00 10 3 Sur 12 Oeste 0 913.1 0.2 95
2019-04-19 13:00:00 9.3 11 Oeste 22 Oeste 0 912.6 -0.3 95
2019-04-19 12:00:00 9.3 8 Oeste 18 Noroeste 0.6 912.5 0 95
2019-04-19 11:00:00 8.6 3 Noroeste 8 Norte 3 912.9 0.9 98
2019-04-19 10:00:00 8.1 3 Noroeste 5 Noroeste 3.2 912.9 1.3 98
2019-04-19 09:00:00 7.7 4 Oeste 9 Oeste 3.8 912.5 0.9 99
2019-04-19 08:00:00 7.4 5 Oeste 10 Oeste 2.4 912 0.5 99
2019-04-19 07:00:00 7 5 Oeste 10 Oeste 3.8 911.6 0.5 99
2019-04-19 06:00:00 6.8 3 Oeste 15 Sudoeste 4.2 911.6 0.7 97
2019-04-19 05:00:00 6.8 13 Oeste 22 Oeste 4 911.5 0.8 97
2019-04-19 04:00:00 6.6 8 Oeste 19 Oeste 5.4 911.1 0.3 96
2019-04-19 03:00:00 6.8 12 Oeste 22 Oeste 3.6 910.9 0.4 95
2019-04-19 02:00:00 7.6 8 Noroeste 26 Oeste 0.8 910.7 -0.7 94
2019-04-19 01:00:00 8.8 12 Sur 46 Sur 0.6 910.8 0 92
2019-04-19 00:00:00 6.9 10 Nordeste 21 Nordeste 2.2 910.5 -0.2 96
2019-04-18 23:00:00 6.6 5 Norte 18 Nordeste 6.2 911.4 1.8 96
2019-04-18 22:00:00 6.9 5 Nordeste 10 Nordeste 4.8 910.8 2.9 96
2019-04-18 21:00:00 7.6 5 Sur 20 Sur 3.8 910.7 3.1 92
2019-04-18 20:00:00 8.4 9 Sur 33 Sur 8.2 909.6 1.2 92
2019-04-18 19:00:00 10.8 8 Sudeste 33 Este 0 907.9 -1.3 81
2019-04-18 18:00:00 11.1 10 Este 32 Sudeste 0 907.6 -1.9 77
2019-04-18 17:00:00 11.1 11 Nordeste 26 Este 0 908.4 -0.8 74
2019-04-18 16:00:00 12.4 8 Este 24 Sur 0 909.2 -0.8 68
2019-04-18 15:00:00 12.5 9 Sur 20 Este 0 909.5 -1 66
2019-04-18 14:00:00 13.2 6 Sudeste 16 Sur 0 909.2 -1.5 63
2019-04-18 13:00:00 13.1 6 Sudeste 19 Sur 0 910 -0.4 63
2019-04-18 12:00:00 13.7 7 Sudeste 21 Sur 0 910.5 -0.7 60
2019-04-18 11:00:00 12.7 8 Sur 14 Sudoeste 0 910.7 0.1 59
2019-04-18 10:00:00 11.3 5 Nordeste 12 Oeste 0 910.4 -0.8 72
2019-04-18 09:00:00 9.1 4 Oeste 16 Oeste 0 911.2 0.1 79
2019-04-18 08:00:00 8.3 3 Este 14 Sur 0 910.6 -1.2 87
2019-04-18 07:00:00 8.2 4 Norte 10 Noroeste 0 911.2 -1 83
2019-04-18 06:00:00 8 5 Oeste 9 Oeste 0 911.1 -1.2 86
2019-04-18 05:00:00 8.2 2 Este 12 Sur 0 911.8 -1.4 85
2019-04-18 04:00:00 8.1 5 Oeste 10 Oeste 0 912.2 -0.9 88
2019-04-18 03:00:00 8.7 4 Sudeste 15 Sudeste 0 912.3 -0.7 83
2019-04-18 02:00:00 9.1 4 Sur 6 Sur 0 913.2 0.4 84
2019-04-18 01:00:00 9.8 5 Sur 15 Sur 0 913.1 1.3 84
2019-04-18 00:00:00 10.5 6 Sudeste 23 Sudeste 0 913 1.7 80
2019-04-17 23:00:00 11.3 5 Sur 15 Sur 0 912.8 2.3 75
2019-04-17 22:00:00 12.1 10 Sur 20 Sudeste 0 911.8 1.6 72
2019-04-17 21:00:00 12.8 8 Sudeste 26 Este 0 911.3 1.1 70
2019-04-17 20:00:00 14.8 8 Sudeste 24 Sudeste 0 910.5 -0.2 63
2019-04-17 19:00:00 17 10 Este 26 Este 0 910.2 -1.2 55
2019-04-17 18:00:00 19 10 Este 39 Sudeste 0 910.2 -1.5 49
2019-04-17 17:00:00 20.8 9 Sudeste 29 Sur 0 910.7 -1.2 43
2019-04-17 16:00:00 21.2 8 Sudeste 31 Sur 0 911.4 -1.3 41
2019-04-17 15:00:00 21.1 11 Sudeste 33 Sudeste 0 911.7 -1.6 41
2019-04-17 14:00:00 19.9 9 Sudeste 29 Sudeste 0 911.9 -1.9 43
2019-04-17 13:00:00 16.9 12 Sur 30 Sur 0 912.7 -1.2 52
2019-04-17 12:00:00 15.1 10 Sur 23 Sur 0 913.3 -0.6 57
2019-04-17 11:00:00 11.7 12 Sur 26 Sur 0 913.8 -0.1 68
2019-04-17 10:00:00 9.7 11 Sudoeste 20 Sur 0 913.9 0.1 78
2019-04-17 09:00:00 8.7 7 Sur 14 Sur 0 913.9 -0.3 83
2019-04-17 08:00:00 8.1 6 Sur 10 Sur 0 913.9 -0.3 86
2019-04-17 07:00:00 8 5 Sur 9 Sur 0 913.8 -1.1 85
2019-04-17 06:00:00 8.2 3 Sur 13 Sur 0 914.2 -1.3 85
2019-04-17 05:00:00 8.4 5 Sudeste 13 Sudeste 0 914.2 -1.3 83
2019-04-17 04:00:00 9.2 3 Sudeste 18 Sur 0 914.9 -0.7 83
2019-04-17 03:00:00 9.4 9 Sur 16 Sur 0 915.5 0.1 83
2019-04-17 02:00:00 9.5 8 Sur 22 Sur 0 915.5 0.2 83
2019-04-17 01:00:00 10 10 Sur 22 Sur 0 915.6 0.8 81
2019-04-17 00:00:00 10.5 10 Sur 21 Sur 0 915.4 1.4 79
2019-04-16 23:00:00 11.1 12 Sur 23 Sur 0 915.3 1.7 77
2019-04-16 22:00:00 11.9 8 Sudeste 27 Sudeste 0 914.8 1.4 73
2019-04-16 21:00:00 13 7 Este 28 Sudeste 0 914 0.6 70
2019-04-16 20:00:00 15.7 11 Este 29 Este 0 913.6 0.1 61
2019-04-16 19:00:00 17.6 11 Sudeste 26 Sudeste 0 913.4 -0.6 53
2019-04-16 18:00:00 20.4 12 Este 26 Este 0 913.4 -1.3 45
2019-04-16 17:00:00 21.2 10 Sur 19 Sur 0 913.5 -1.9 31
2019-04-16 16:00:00 19.7 7 Sudoeste 16 Sur 0 914 -1.8 34
2019-04-16 15:00:00 17.9 6 Norte 16 Noroeste 0 914.7 -1.5 37
2019-04-16 14:00:00 16.6 7 Nordeste 14 Nordeste 0 915.4 -0.7 48
2019-04-16 13:00:00 15.5 5 Norte 15 Nordeste 0 915.8 -0.2 55
2019-04-16 12:00:00 14.3 7 Nordeste 17 Nordeste 0 916.2 0.5 56
2019-04-16 11:00:00 11.7 5 Noroeste 12 Noroeste 0 916.1 1 69
2019-04-16 10:00:00 11.6 4 Norte 10 Nordeste 0 916 1.9 74
2019-04-16 09:00:00 8.6 3 Noroeste 11 Noroeste 0 915.7 1.6 85
2019-04-16 08:00:00 7.6 4 Norte 10 Oeste 0 915.1 1.5 89
2019-04-16 07:00:00 6.8 3 Noroeste 13 Noroeste 0 914.1 0.8 86
2019-04-16 06:00:00 7.3 3 Oeste 6 Oeste 0 914.1 0.3 88
2019-04-16 05:00:00 8.4 3 Norte 10 Noroeste 0 913.6 -0.1 84
2019-04-16 04:00:00 9.9 4 Norte 10 Noroeste 0 913.3 -0.2 81
2019-04-16 03:00:00 11 5 Norte 11 Este 0 913.8 1.9 78
2019-04-16 02:00:00 11.1 5 Noroeste 17 Norte 0.8 913.7 1.9 83
2019-04-16 01:00:00 11.5 3 Nordeste 14 Norte 0 913.5 2.6 81
2019-04-16 00:00:00 11.9 3 Sudoeste 19 Sur 0 911.9 1.9 75
2019-04-15 23:00:00 13.4 6 Oeste 27 Norte 0.2 911.8 2.4 75
2019-04-15 22:00:00 14.2 6 Sur 23 Sur 0 910.9 1.6 64
2019-04-15 21:00:00 14.5 9 Sudeste 22 Este 0 910 0.8 59
2019-04-15 20:00:00 17.1 9 Este 26 Este 0 909.4 -0.1 51
2019-04-15 19:00:00 19.6 8 Este 35 Sur 0 909.3 -0.9 46
2019-04-15 18:00:00 22 17 Sur 39 Sur 0 909.2 -1.5 40
2019-04-15 17:00:00 20.2 8 Sudeste 30 Sur 0 909.5 -1.6 45
2019-04-15 16:00:00 19.6 21 Sur 38 Sur 0 910.2 -1.2 43
2019-04-15 15:00:00 20.8 17 Sur 42 Sudeste 0 910.7 -1.4 38
2019-04-15 14:00:00 22.2 14 Sur 40 Sur 0 911.1 -1.3 40
2019-04-15 13:00:00 21.6 11 Este 28 Este 0 911.4 -1.4 40
2019-04-15 12:00:00 19.3 12 Este 22 Este 0 912.1 -0.7 47
2019-04-15 11:00:00 16.6 8 Sur 14 Sur 0 912.4 -0.4 56
2019-04-15 10:00:00 13.8 4 Sudeste 9 Sudeste 0 912.8 0.1 63
2019-04-15 09:00:00 9.3 2 Este 5 Nordeste 0 912.8 0 78
2019-04-15 08:00:00 6.2 0 Calma 8 Oeste 0 912.8 -0.3 87
2019-04-15 07:00:00 6.4 3 Noroeste 5 Oeste 0 912.7 -0.7 87
2019-04-15 06:00:00 7.1 2 Norte 6 Oeste 0 912.8 -1.1 86
2019-04-15 05:00:00 8.1 2 Noroeste 6 Nordeste 0 913.1 -1.1 84
2019-04-15 04:00:00 8.6 3 Noroeste 8 Norte 0 913.4 -1.1 83
2019-04-15 03:00:00 9.4 3 Noroeste 8 Noroeste 0 913.9 -0.4 80
2019-04-15 02:00:00 10.3 3 Norte 8 Norte 0 914.2 0.4 76
2019-04-15 01:00:00 11.8 3 Noroeste 8 Noroeste 0 914.5 1.1 70
2019-04-15 00:00:00 13.8 2 Noroeste 11 Noroeste 0 914.3 1.8 62
2019-04-14 23:00:00 15.2 5 Noroeste 10 Noroeste 0 913.8 1.9 58
2019-04-14 22:00:00 17.1 6 Oeste 13 Noroeste 0 913.4 1.8 52
2019-04-14 21:00:00 18.9 4 Norte 20 Nordeste 0 912.5 1.1 49
2019-04-14 20:00:00 21.2 7 Norte 23 Norte 0 911.9 0.1 39
2019-04-14 19:00:00 22.8 10 Norte 24 Nordeste 0 911.6 -0.7 37
2019-04-14 18:00:00 21.8 10 Norte 26 Norte 0 911.4 -1.4 37
2019-04-14 17:00:00 23 11 Norte 27 Norte 0 911.8 -1.6 35
2019-04-14 16:00:00 22.6 10 Norte 22 Oeste 0 912.3 -1.4 37
2019-04-14 15:00:00 21.5 8 Norte 23 Nordeste 0 912.8 -1.5 40
2019-04-14 14:00:00 20.1 8 Noroeste 22 Norte 0 913.4 -1.3 42
2019-04-14 13:00:00 18.6 4 Oeste 13 Oeste 0 913.7 -1 38
2019-04-14 12:00:00 16.1 3 Sudoeste 9 Este 0 914.3 -0.5 38
2019-04-14 11:00:00 12.5 2 Oeste 6 Sur 0 914.7 0.1 40
2019-04-14 10:00:00 7.6 3 Sudoeste 7 Oeste 0 914.7 0.3 54
2019-04-14 09:00:00 3.5 2 Sudoeste 6 Norte 0 914.8 0.4 68
2019-04-14 08:00:00 0.7 3 Noroeste 7 Noroeste 0 914.6 0.1 77
2019-04-14 07:00:00 0.8 3 Noroeste 6 Noroeste 0 914.4 -0.6 74
2019-04-14 06:00:00 0.8 3 Norte 9 Oeste 0 914.4 -0.6 74
2019-04-14 05:00:00 1.1 3 Oeste 6 Oeste 0 914.5 -0.7 73
2019-04-14 04:00:00 1.7 2 Noroeste 5 Oeste 0 915 -0.4 69
2019-04-14 03:00:00 2.5 2 Noroeste 4 Noroeste 0 915 -0.3 66
2019-04-14 02:00:00 3.2 0 Calma 5 Oeste 0 915.2 0.2 60
2019-04-14 01:00:00 4.4 2 Noroeste 5 Nordeste 0 915.4 0.7 57
2019-04-14 00:00:00 6.1 3 Nordeste 7 Norte 0 915.3 1.6 49
2019-04-13 23:00:00 8.3 3 Oeste 8 Oeste 0 915 1.7 39
2019-04-13 22:00:00 10.7 4 Oeste 7 Oeste 0 914.7 1.4 31
2019-04-13 21:00:00 13.6 4 Norte 12 Nordeste 0 913.7 0.6 28
2019-04-13 20:00:00 17.5 7 Nordeste 21 Nordeste 0 913.3 0.1 17
2019-04-13 19:00:00 18.7 9 Norte 21 Norte 0 913.3 -0.6 11
2019-04-13 18:00:00 19 10 Norte 22 Nordeste 0 913.1 -1 8
2019-04-13 17:00:00 19.4 8 Norte 19 Nordeste 0 913.2 -1.4 10
2019-04-13 16:00:00 18.6 8 Norte 19 Norte 0 913.9 -1.4 11
2019-04-13 15:00:00 17.6 6 Noroeste 17 Noroeste 0 914.1 -1.7 11
2019-04-13 14:00:00 16.3 6 Noroeste 15 Sudoeste 0 914.6 -1.5 16
2019-04-13 13:00:00 14.3 8 Norte 23 Norte 0 915.3 -0.5 18
2019-04-13 12:00:00 12.1 6 Sur 12 Este 0 915.8 -0.1 42
2019-04-13 11:00:00 8.3 5 Sur 9 Sudeste 0 916.1 0.6 56
2019-04-13 10:00:00 4.5 3 Norte 6 Norte 0 915.8 0.8 73
2019-04-13 09:00:00 1.2 0 Calma 7 Norte 0 915.9 1.2 84
2019-04-13 08:00:00 -1.5 2 Noroeste 7 Oeste 0 915.5 1 91
2019-04-13 07:00:00 -1.3 0 Calma 5 Nordeste 0 915 0.6 90
2019-04-13 06:00:00 -0.4 3 Norte 8 Oeste 0 914.7 0.1 87
2019-04-13 05:00:00 0.2 3 Noroeste 9 Noroeste 0 914.5 -0.5 87
2019-04-13 04:00:00 0.9 3 Norte 6 Noroeste 0 914.4 -0.5 86
2019-04-13 03:00:00 1.8 2 Norte 4 Nordeste 0 914.6 0.1 82
2019-04-13 02:00:00 3.1 3 Norte 8 Norte 0 915 1 77
2019-04-13 01:00:00 4.6 4 Nordeste 9 Noroeste 0 914.9 1.5 72
2019-04-13 00:00:00 5.7 5 Oeste 10 Oeste 0 914.5 1.6 65
2019-04-12 23:00:00 6.8 0 Calma 8 Noroeste 0 914 1.4 62
2019-04-12 22:00:00 8.3 4 Oeste 8 Oeste 0 913.4 0.9 56
2019-04-12 21:00:00 10.8 3 Norte 13 Noroeste 0 912.9 0.4 51
2019-04-12 20:00:00 13.9 6 Norte 18 Norte 0 912.6 -0.2 37
2019-04-12 19:00:00 14.6 7 Norte 20 Nordeste 0 912.5 -0.6 34
2019-04-12 18:00:00 14.7 8 Nordeste 24 Noroeste 0 912.5 -1 28
2019-04-12 17:00:00 14.3 10 Noroeste 24 Noroeste 0 912.8 -1.2 36
2019-04-12 16:00:00 13.7 9 Norte 25 Norte 0 913.1 -1.6 42
2019-04-12 15:00:00 12.7 12 Norte 23 Norte 0 913.5 -1.2 46
2019-04-12 14:00:00 11.3 8 Nordeste 18 Noroeste 0 914 -0.6 52
2019-04-12 13:00:00 8.9 8 Norte 20 Nordeste 0 914.7 0.4 59
2019-04-12 12:00:00 7.5 10 Norte 23 Norte 0 914.7 0.6 65
2019-04-12 11:00:00 6.4 10 Norte 22 Nordeste 0 914.6 0.5 67
2019-04-12 10:00:00 6.3 12 Norte 25 Noroeste 0 914.3 0.6 68
2019-04-12 09:00:00 5.9 8 Noroeste 21 Noroeste 0 914.1 0.3 72
2019-04-12 08:00:00 5.3 9 Noroeste 22 Norte 0 914.1 0.1 73
2019-04-12 07:00:00 5.2 9 Noroeste 20 Norte 0 913.7 -0.5 73
2019-04-12 06:00:00 5.2 8 Noroeste 21 Noroeste 0 913.8 -0.8 74
2019-04-12 05:00:00 5.2 7 Noroeste 17 Noroeste 0 914 -1 75
2019-04-12 04:00:00 4.5 6 Noroeste 13 Noroeste 0 914.2 -0.7 79
2019-04-12 03:00:00 3.8 4 Norte 9 Norte 0 914.6 -0.3 81
2019-04-12 02:00:00 4 4 Norte 13 Norte 0 915 0.4 79
2019-04-12 01:00:00 5.4 3 Nordeste 8 Nordeste 0 914.9 0.9 76
2019-04-12 00:00:00 5.1 5 Noroeste 10 Noroeste 0 914.9 1.7 76
2019-04-11 23:00:00 6.2 5 Noroeste 16 Norte 0 914.6 2.1 70
2019-04-11 22:00:00 7.3 10 Norte 26 Nordeste 0 914 1.8 64
2019-04-11 21:00:00 8.9 10 Norte 26 Norte 0 913.2 1.2 60
2019-04-11 20:00:00 10.7 13 Norte 29 Nordeste 0 912.5 0.6 53
2019-04-11 19:00:00 12.7 13 Noroeste 36 Noroeste 0 912.2 0.1 44
2019-04-11 18:00:00 13.7 15 Noroeste 32 Norte 0 912 -0.4 42
2019-04-11 17:00:00 12.8 12 Norte 33 Nordeste 0 911.9 -0.8 41
2019-04-11 16:00:00 12.4 14 Norte 34 Noroeste 0 912.1 -1.1 43
2019-04-11 15:00:00 11.8 16 Noroeste 35 Noroeste 0 912.4 -1.1 45
2019-04-11 14:00:00 11.4 13 Norte 34 Noroeste 0 912.7 -1 48
2019-04-11 13:00:00 10.3 15 Noroeste 31 Norte 0 913.2 -0.5 48
2019-04-11 12:00:00 8.8 14 Norte 32 Noroeste 0 913.5 0 59
2019-04-11 11:00:00 7 13 Noroeste 28 Noroeste 0 913.7 0.6 67
2019-04-11 10:00:00 5.8 11 Norte 24 Norte 0 913.7 1 73
2019-04-11 09:00:00 5.4 10 Noroeste 25 Norte 0 913.5 0.9 74
2019-04-11 08:00:00 5 10 Noroeste 21 Noroeste 0 913.1 0.5 76
2019-04-11 07:00:00 4.9 10 Noroeste 22 Noroeste 0 912.7 0.2 77
2019-04-11 06:00:00 5.2 11 Noroeste 22 Noroeste 0 912.6 0.2 76
2019-04-11 05:00:00 5.4 12 Noroeste 27 Noroeste 0 912.6 0 76
2019-04-11 04:00:00 5.7 12 Noroeste 22 Noroeste 0 912.5 0 75
2019-04-11 03:00:00 6 8 Noroeste 16 Noroeste 0 912.4 0.3 74
2019-04-11 02:00:00 5.7 7 Noroeste 14 Noroeste 0 912.6 0.8 76
2019-04-11 01:00:00 5.7 6 Noroeste 13 Noroeste 0 912.5 1.3 78
2019-04-11 00:00:00 6.5 5 Norte 19 Norte 0 912.1 2 74
2019-04-10 23:00:00 7.4 4 Noroeste 19 Norte 0 911.8 2.2 75
2019-04-10 22:00:00 8 6 Norte 17 Norte 0 911.2 2.3 75
2019-04-10 21:00:00 8.1 2 Norte 15 Noroeste 0 910.1 1.8 74
2019-04-10 20:00:00 7.8 7 Noroeste 40 Norte 0.2 909.6 1.7 78
2019-04-10 19:00:00 10.8 15 Noroeste 32 Norte 0 908.9 1 56
2019-04-10 18:00:00 11.7 15 Norte 32 Norte 0 908.3 0 45
2019-04-10 17:00:00 12.8 14 Norte 30 Norte 0 907.9 -0.7 44
2019-04-10 16:00:00 13 12 Norte 33 Noroeste 0 907.9 -1.2 44
2019-04-10 15:00:00 11.6 15 Noroeste 31 Noroeste 0 908.3 -1 44
2019-04-10 14:00:00 10.7 11 Norte 33 Oeste 0 908.6 -0.5 54
2019-04-10 13:00:00 9.6 10 Norte 26 Noroeste 0 909.1 0.2 56
2019-04-10 12:00:00 8.8 13 Norte 41 Noroeste 0 909.3 0.5 59
2019-04-10 11:00:00 8.6 18 Noroeste 36 Norte 0 909.1 0.7 62
2019-04-10 10:00:00 5.1 9 Noroeste 18 Norte 0 908.9 0.5 83
2019-04-10 09:00:00 1.7 3 Este 9 Este 0 908.8 0.6 94
2019-04-10 08:00:00 1.5 3 Este 6 Sudeste 0 908.4 0 92
2019-04-10 07:00:00 1.9 0 Calma 8 Oeste 0 908.4 0 92
2019-04-10 06:00:00 2.6 2 Sudoeste 6 Oeste 0 908.2 -0.3 91
2019-04-10 05:00:00 2.9 5 Oeste 6 Oeste 0 908.4 -0.3 89
2019-04-10 04:00:00 3.1 2 Sudeste 6 Sudeste 0 908.4 -0.6 89
2019-04-10 03:00:00 3.5 0 Calma 6 Oeste 0 908.5 -0.4 90
2019-04-10 02:00:00 4.1 2 Noroeste 6 Oeste 0 908.7 -0.4 87
2019-04-10 01:00:00 4.5 3 Sudeste 5 Sudeste 0 909 0.4 85
2019-04-10 00:00:00 5.1 2 Sur 6 Sudoeste 0 908.9 0.6 82
2019-04-09 23:00:00 5.6 3 Este 10 Norte 0 909.1 1.4 77
2019-04-09 22:00:00 6.1 6 Norte 25 Norte 0 908.6 1.5 75
2019-04-09 21:00:00 6.4 11 Noroeste 23 Norte 0 908.3 1.2 78
2019-04-09 20:00:00 7.8 10 Norte 25 Oeste 0 907.7 0.5 71
2019-04-09 19:00:00 8.8 12 Sur 21 Sur 0 907.1 -0.4 69
2019-04-09 18:00:00 10 7 Noroeste 39 Oeste 0 907.1 -0.9 61
2019-04-09 17:00:00 9.9 10 Noroeste 26 Noroeste 0.8 907.2 -1 60
2019-04-09 16:00:00 11 5 Sudoeste 27 Oeste 0.2 907.5 -0.9 57
2019-04-09 15:00:00 11.8 14 Oeste 33 Oeste 0 908 -0.6 46
2019-04-09 14:00:00 11.3 13 Oeste 29 Oeste 0 908.2 -0.8 47
2019-04-09 13:00:00 12.3 12 Noroeste 29 Norte 0 908.4 -0.8 46
2019-04-09 12:00:00 11 12 Noroeste 28 Oeste 0 908.6 -1 48
2019-04-09 11:00:00 9.5 9 Noroeste 19 Noroeste 0 909 -0.5 61
2019-04-09 10:00:00 7.7 3 Norte 9 Nordeste 0 909.2 0.1 73
2019-04-09 09:00:00 4 2 Sudoeste 5 Sudoeste 0 909.6 0.4 91
2019-04-09 08:00:00 2.6 3 Oeste 8 Oeste 0 909.5 0.1 91
2019-04-09 07:00:00 3.5 3 Norte 8 Oeste 0 909.1 -0.4 90
2019-04-09 06:00:00 4.2 3 Sudoeste 8 Oeste 0 909.2 -0.5 89
2019-04-09 05:00:00 4.8 6 Oeste 9 Oeste 0 909.4 0 87
2019-04-09 04:00:00 5.5 5 Noroeste 19 Noroeste 0 909.5 0.4 83
2019-04-09 03:00:00 5.2 5 Noroeste 11 Noroeste 0 909.7 1 81
2019-04-09 02:00:00 5.7 6 Noroeste 16 Norte 0 909.4 0.5 78
2019-04-09 01:00:00 6.7 10 Noroeste 25 Norte 0 909.1 0.5 77
2019-04-09 00:00:00 7.6 5 Oeste 12 Oeste 0 908.7 0.5 77
2019-04-08 23:00:00 8.5 6 Oeste 10 Oeste 0 908.9 1 68
2019-04-08 22:00:00 10.1 3 Oeste 9 Oeste 0 908.6 0.9 58
2019-04-08 21:00:00 12.1 7 Oeste 19 Oeste 0 908.2 0.2 50
2019-04-08 20:00:00 14.8 13 Oeste 33 Oeste 0 907.9 -0.2 40
2019-04-08 19:00:00 15.6 17 Oeste 36 Sudoeste 0 907.7 -0.4 33
2019-04-08 18:00:00 14.6 17 Oeste 40 Oeste 0 908 -0.6 45
2019-04-08 17:00:00 15.6 15 Sudoeste 35 Sudoeste 0 908.1 -0.8 50
2019-04-08 16:00:00 16.3 11 Sudoeste 31 Sudoeste 0 908.1 -1.1 47
2019-04-08 15:00:00 16.4 15 Oeste 30 Oeste 0 908.6 -1.2 46
2019-04-08 14:00:00 14.4 13 Oeste 27 Oeste 0 908.9 -0.7 54
2019-04-08 13:00:00 14.3 12 Sur 22 Sur 0 909.2 -0.2 65
2019-04-08 12:00:00 11.9 9 Sur 16 Sur 0.2 909.8 0.3 73
2019-04-08 11:00:00 10.4 2 Nordeste 7 Sur 0 909.6 0.5 80
2019-04-08 10:00:00 9.1 3 Sudeste 6 Sur 0 909.4 0.5 81
2019-04-08 09:00:00 6.8 2 Noroeste 7 Norte 0 909.5 0.8 90
2019-04-08 08:00:00 5.9 3 Nordeste 8 Norte 0 909.1 0 91
2019-04-08 07:00:00 5.7 4 Norte 19 Sur 0 908.9 -0.7 88
2019-04-08 06:00:00 5.7 9 Sur 19 Sur 0 908.7 -1.3 87
2019-04-08 05:00:00 5.6 3 Sudeste 6 Sur 0 909.1 -1.6 88
2019-04-08 04:00:00 6 3 Sudeste 5 Sur 0 909.6 -1.3 86
2019-04-08 03:00:00 6.1 0 Calma 6 Sur 0.2 910 -0.6 88
2019-04-08 02:00:00 6.3 0 Calma 5 Sudeste 0.4 910.7 0.1 86
2019-04-08 01:00:00 6.8 3 Sur 16 Sudoeste 0.6 910.9 0.6 80
2019-04-08 00:00:00 8.1 10 Oeste 19 Oeste 0 910.6 1.2 60
2019-04-07 23:00:00 8.5 11 Oeste 18 Oeste 0 910.6 1.7 54
2019-04-07 22:00:00 8.7 4 Oeste 9 Oeste 0 910.3 1.8 51
2019-04-07 21:00:00 9.4 3 Oeste 16 Oeste 0 909.4 1.3 50
2019-04-07 20:00:00 10.5 8 Oeste 24 Oeste 0 908.9 0.9 41
2019-04-07 19:00:00 11 13 Oeste 25 Oeste 0 908.5 0.6 39
2019-04-07 18:00:00 11.6 10 Oeste 26 Oeste 0 908.1 0.2 39
2019-04-07 17:00:00 10.9 12 Noroeste 26 Noroeste 0 908 0.4 44
2019-04-07 16:00:00 9.7 12 Noroeste 28 Norte 0 907.9 0.4 44
2019-04-07 15:00:00 9 13 Noroeste 29 Noroeste 0 907.9 0.9 49
2019-04-07 14:00:00 8.5 13 Noroeste 30 Noroeste 0 907.6 1.8 51
2019-04-07 13:00:00 7 13 Noroeste 33 Noroeste 0 907.5 2.4 54
2019-04-07 12:00:00 6.6 12 Noroeste 39 Noroeste 0 907 2.7 61
2019-04-07 11:00:00 6.7 14 Noroeste 31 Noroeste 0 905.8 2.1 65
2019-04-07 10:00:00 5.6 13 Norte 30 Norte 0 905.1 2.2 70
2019-04-07 09:00:00 2.8 5 Oeste 12 Oeste 0 904.3 2 82
2019-04-07 08:00:00 1.9 7 Oeste 11 Oeste 0 903.7 1.5 83
2019-04-07 07:00:00 1.4 3 Noroeste 9 Norte 0 902.9 1.1 88
2019-04-07 06:00:00 1.3 6 Norte 12 Nordeste 0 902.3 0.6 89
2019-04-07 05:00:00 2.3 3 Este 9 Sudeste 0 902.2 0.6 89
2019-04-07 04:00:00 3 3 Este 6 Sudeste 0 901.8 0 89
2019-04-07 03:00:00 3.1 3 Este 7 Sudeste 0 901.7 -0.1 87
2019-04-07 02:00:00 3.8 3 Sudeste 5 Sur 0 901.6 0 84
2019-04-07 01:00:00 3.7 3 Sur 18 Sur 0 901.8 0.3 84
2019-04-07 00:00:00 3.7 7 Sur 15 Sur 0 901.8 0.8 87
2019-04-06 23:00:00 3.2 4 Este 9 Oeste 0.2 901.6 1.1 93
2019-04-06 22:00:00 3.3 3 Oeste 25 Noroeste 0.2 901.5 2.1 89
2019-04-06 21:00:00 4.7 4 Oeste 26 Norte 0 901 1.6 83
2019-04-06 20:00:00 6.9 7 Norte 26 Oeste 0 900.5 1.1 67
2019-04-06 19:00:00 8.9 11 Sudoeste 30 Oeste 0 899.4 -0.3 47
2019-04-06 18:00:00 10.1 21 Oeste 37 Oeste 0 899.4 0.1 45
2019-04-06 17:00:00 8.5 9 Sudoeste 23 Sudoeste 0 899.4 -0.1 58
2019-04-06 16:00:00 7.1 12 Sur 47 Sudoeste 0.2 899.7 -0.5 75
2019-04-06 15:00:00 10.7 16 Sudoeste 41 Sudoeste 0 899.3 -1.1 46
2019-04-06 14:00:00 9.5 17 Oeste 35 Oeste 0 899.5 -0.9 49
2019-04-06 13:00:00 7.7 17 Oeste 31 Oeste 0 900.2 0.4 52
2019-04-06 12:00:00 6.2 13 Oeste 27 Oeste 0 900.4 1.2 59
2019-04-06 11:00:00 6.2 19 Oeste 39 Oeste 0 900.4 1.8 53
2019-04-06 10:00:00 5.4 16 Oeste 33 Oeste 0 899.8 1.8 63
2019-04-06 09:00:00 3.5 5 Sur 9 Sur 0 899.2 1.3 77
2019-04-06 08:00:00 2.2 3 Nordeste 12 Oeste 0 898.6 0.4 85
2019-04-06 07:00:00 1.8 7 Oeste 12 Oeste 0 898 -0.4 85
2019-04-06 06:00:00 1.5 2 Norte 7 Norte 0 897.9 -0.5 87
2019-04-06 05:00:00 1.6 3 Oeste 9 Sudeste 0 898.2 -0.1 85
2019-04-06 04:00:00 1.7 2 Sudeste 7 Sur 0 898.4 0.3 82
2019-04-06 03:00:00 2.6 4 Sudeste 7 Sur 0 898.4 0.5 79
2019-04-06 02:00:00 3.4 3 Sudoeste 10 Sudoeste 0 898.3 0.6 77
2019-04-06 01:00:00 3.5 5 Sudoeste 19 Sudoeste 0 898.1 0.8 75
2019-04-06 00:00:00 3.7 11 Sudoeste 19 Sudoeste 0 897.9 1.2 74
2019-04-05 23:00:00 4.2 4 Oeste 11 Sudoeste 0 897.7 2 79
2019-04-05 22:00:00 4.2 4 Sur 27 Sudoeste 0 897.3 1.5 82
2019-04-05 21:00:00 5.1 10 Sur 28 Sur 0 896.7 0.2 82
2019-04-05 20:00:00 6.1 13 Sur 23 Sur 0 895.7 -1.1 78
2019-04-05 19:00:00 5.7 9 Sur 32 Sur 0.2 895.8 -1.5 83
2019-04-05 18:00:00 6.6 8 Sudoeste 24 Sur 0 896.5 -1.5 82
2019-04-05 17:00:00 7 14 Sur 30 Sudeste 0 896.8 -0.7 74
2019-04-05 16:00:00 6.9 12 Sur 31 Sur 0 897.3 -0.8 78
2019-04-05 15:00:00 7.4 22 Sur 45 Sudoeste 0.2 898 -0.5 78
2019-04-05 14:00:00 10.6 16 Sur 32 Sur 0 897.5 -0.8 54
2019-04-05 13:00:00 9.7 12 Sudoeste 24 Sudoeste 0 898.1 -0.1 55
2019-04-05 12:00:00 8.5 11 Sudoeste 25 Sur 0 898.5 0 60
2019-04-05 11:00:00 9.4 16 Sudoeste 26 Sudoeste 0 898.3 -0.2 58
2019-04-05 10:00:00 8.1 6 Sudeste 14 Sudeste 0 898.2 0 65
2019-04-05 09:00:00 5.8 9 Sur 17 Sur 0 898.5 0.4 75
2019-04-05 08:00:00 5.4 9 Sur 21 Sur 0 898.5 0.2 78
2019-04-05 07:00:00 5.9 12 Sur 26 Sur 0 898.2 -0.4 78
2019-04-05 06:00:00 6.3 12 Sur 26 Sur 0 898.1 -0.9 78
2019-04-05 05:00:00 5.8 10 Sur 15 Sur 0 898.3 -1 79
2019-04-05 04:00:00 5.8 5 Sur 13 Sur 0 898.6 -0.9 76
2019-04-05 03:00:00 5.4 8 Sur 18 Sur 0 899 -0.5 78
2019-04-05 02:00:00 4.3 6 Sur 15 Sur 0 899.3 -0.5 77
2019-04-05 01:00:00 4.9 7 Sur 19 Sur 0 899.5 -0.1 73
2019-04-05 00:00:00 5.3 6 Sudeste 19 Sur 0 899.5 0.5 73
2019-04-04 23:00:00 6.3 9 Sudeste 17 Sur 0 899.8 1.3 65
2019-04-04 22:00:00 7.4 8 Sur 14 Sur 0 899.6 0.9 53
2019-04-04 21:00:00 10 10 Sudoeste 21 Sur 0 899 0.4 30
2019-04-04 20:00:00 12.8 9 Sur 29 Sur 0 898.5 -0.3 26
2019-04-04 19:00:00 13.3 19 Sur 36 Sur 0 898.7 -1.3 20
2019-04-04 18:00:00 14.4 21 Sur 35 Sur 0 898.6 -2.1 23
2019-04-04 17:00:00 12.5 6 Este 14 Sudeste 0 898.8 -2.6 32
2019-04-04 16:00:00 11.5 6 Nordeste 21 Oeste 0 900 -1.7 35
2019-04-04 15:00:00 11.4 4 Este 19 Oeste 0 900.7 -1.3 35
2019-04-04 14:00:00 9.4 6 Oeste 19 Oeste 0 901.4 -0.6 39
2019-04-04 13:00:00 7.5 9 Norte 20 Norte 0 901.7 -0.5 42
2019-04-04 12:00:00 6.4 8 Norte 23 Norte 0 902 0.2 47
2019-04-04 11:00:00 4.5 10 Norte 23 Noroeste 0 902 0.8 54
2019-04-04 10:00:00 3 10 Norte 21 Noroeste 0 902.2 1.6 61
2019-04-04 09:00:00 0.8 3 Nordeste 6 Nordeste 0 901.8 1.6 87
2019-04-04 08:00:00 -1.7 2 Nordeste 6 Nordeste 0 901.2 1.1 93
2019-04-04 07:00:00 -1.3 0 Calma 5 Nordeste 0 900.6 0.5 92
2019-04-04 06:00:00 -0.6 2 Norte 4 Nordeste 0 900.2 -0.4 92
2019-04-04 05:00:00 0.2 4 Oeste 8 Nordeste 0 900.1 -1.3 90
2019-04-04 04:00:00 0.8 3 Nordeste 13 Norte 0 900.1 -1.9 88
2019-04-04 03:00:00 1.6 7 Norte 14 Nordeste 0 900.6 -1.5 86
2019-04-04 02:00:00 2.3 4 Oeste 11 Norte 0 901.4 -0.6 82
2019-04-04 01:00:00 2.6 5 Noroeste 14 Norte 0 902 1 80
2019-04-04 00:00:00 2.7 7 Norte 24 Nordeste 0 902.1 2.1 80
2019-04-03 23:00:00 3.5 10 Nordeste 33 Norte 0 902 1.8 82
2019-04-03 22:00:00 5.5 15 Nordeste 33 Nordeste 0 901 0.5 79
2019-04-03 21:00:00 7.2 0 Calma 8 Norte 0 900 -0.5 72
2019-04-03 20:00:00 7.7 3 Nordeste 12 Noroeste 0 900.2 0.1 66
2019-04-03 19:00:00 7.8 7 Nordeste 27 Norte 0 900.5 0.6 70
2019-04-03 18:00:00 8.5 15 Norte 32 Norte 0 900.5 0.1 66
2019-04-03 17:00:00 10.7 18 Noroeste 37 Noroeste 0 900.1 -1.2 67
2019-04-03 16:00:00 13.8 16 Oeste 32 Oeste 0 899.9 -2.4 55
2019-04-03 15:00:00 14.7 13 Oeste 35 Sudoeste 0 900.4 -2.8 43
2019-04-03 14:00:00 15 15 Sudoeste 32 Sudoeste 0 901.3 -2.8 45
2019-04-03 13:00:00 13 12 Sudoeste 32 Sur 0 902.3 -2.6 60
2019-04-03 12:00:00 11.2 15 Sur 30 Sur 0 903.2 -2.4 67
2019-04-03 11:00:00 10 4 Este 10 Sur 0 904.1 -1.8 84
2019-04-03 10:00:00 5.6 3 Sur 7 Sudoeste 0 904.9 -1.2 96
2019-04-03 09:00:00 4 2 Oeste 4 Oeste 0 905.6 -1.1 97
2019-04-03 08:00:00 3.1 3 Noroeste 6 Oeste 0 905.9 -1.2 97
2019-04-03 07:00:00 3.1 2 Oeste 7 Oeste 0 906.1 -1.9 97
2019-04-03 06:00:00 2.9 4 Oeste 6 Oeste 0 906.7 -2 96
2019-04-03 05:00:00 3.7 3 Oeste 6 Sudoeste 0 907.1 -2.3 96
2019-04-03 04:00:00 4.3 3 Oeste 5 Oeste 0 908 -1.7 94
2019-04-03 03:00:00 4.9 2 Sudeste 4 Sur 0 908.7 -1.6 96
2019-04-03 02:00:00 4.9 2 Norte 4 Norte 0 909.4 -1.1 95
2019-04-03 01:00:00 5.8 3 Nordeste 5 Nordeste 0 909.7 -0.9 94
2019-04-03 00:00:00 6.7 0 Calma 4 Noroeste 0 910.3 -0.3 92
2019-04-02 23:00:00 7.5 3 Norte 4 Norte 0 910.5 -0.1 92
2019-04-02 22:00:00 8.3 2 Sudeste 9 Sur 0 910.6 0.9 90
2019-04-02 21:00:00 9.2 2 Sudeste 17 Noroeste 0.4 910.6 1.1 86
2019-04-02 20:00:00 9.8 11 Noroeste 28 Noroeste 0 910.6 0.6 79
2019-04-02 19:00:00 13.4 12 Oeste 26 Oeste 0 909.7 -0.8 56
2019-04-02 18:00:00 14.4 6 Sudoeste 13 Sur 0 909.5 -0.9 49
2019-04-02 17:00:00 14.7 5 Nordeste 34 Oeste 0 910 -1 48
2019-04-02 16:00:00 13.3 17 Oeste 36 Oeste 0 910.5 -1.3 56
2019-04-02 15:00:00 15.4 6 Noroeste 15 Noroeste 0 910.4 -2.1 45
2019-04-02 14:00:00 16 7 Sudoeste 11 Sudoeste 0 911 -1.7 51
2019-04-02 13:00:00 14.3 4 Noroeste 13 Nordeste 0 911.8 -0.8 56
2019-04-02 12:00:00 12.7 3 Oeste 11 Sur 0 912.5 0.1 65
2019-04-02 11:00:00 11 5 Este 9 Este 0 912.7 0.3 81
2019-04-02 10:00:00 7 3 Este 6 Este 0 912.6 0.7 96
2019-04-02 09:00:00 6.5 2 Sudeste 7 Sudoeste 0 912.4 0.5 98
2019-04-02 08:00:00 5.7 3 Oeste 6 Oeste 0 912.4 0.6 98
2019-04-02 07:00:00 5.2 0 Calma 6 Oeste 0 911.9 -0.2 97
2019-04-02 06:00:00 6 2 Sudoeste 4 Norte 0 911.9 -0.5 94
2019-04-02 05:00:00 6.8 0 Calma 6 Sudeste 0 911.8 -0.9 94
2019-04-02 04:00:00 7.7 0 Calma 6 Sur 0 912.1 -0.7 95
2019-04-02 03:00:00 8 4 Sudeste 8 Sudeste 0 912.4 -0.3 93
2019-04-02 02:00:00 8.1 5 Sudeste 12 Sur 0 912.7 -0.1 93
2019-04-02 01:00:00 8.2 4 Sudeste 14 Sur 0.6 912.8 0.5 93
2019-04-02 00:00:00 8.7 5 Sudeste 10 Sur 0.4 912.7 1.2 91
2019-04-01 23:00:00 8.5 3 Sur 7 Sur 0 912.8 1.9 86
2019-04-01 22:00:00 8.4 2 Sudeste 9 Sur 0 912.3 1.5 85
2019-04-01 21:00:00 9.2 6 Sudeste 10 Sur 0 911.5 0.5 83
2019-04-01 20:00:00 10.6 5 Este 12 Este 0 910.9 0.3 79
2019-04-01 19:00:00 11.7 5 Sudeste 14 Sudeste 0 910.8 -0.2 78
2019-04-01 18:00:00 11.6 6 Este 27 Sur 0 911 -0.2 77
2019-04-01 17:00:00 13.8 14 Sur 25 Sudeste 0 910.6 -0.8 66
2019-04-01 16:00:00 11.5 10 Sur 25 Sur 0 911 -0.6 82
2019-04-01 15:00:00 11.5 13 Sur 23 Sur 0 911.2 -0.5 80
2019-04-01 14:00:00 11.7 6 Sudeste 13 Sur 0 911.4 -0.2 76
2019-04-01 13:00:00 11.6 4 Sudeste 14 Este 0 911.6 0.5 80
2019-04-01 12:00:00 10.8 5 Este 14 Sudeste 0 911.7 0.9 86
2019-04-01 11:00:00 9.2 4 Oeste 8 Noroeste 0 911.6 1.2 87
2019-04-01 10:00:00 8.1 3 Norte 6 Norte 0 911.1 0.9 93
2019-04-01 09:00:00 7.4 2 Oeste 5 Oeste 0.4 910.8 0.8 94
2019-04-01 08:00:00 7.3 0 Calma 3 Oeste 0.6 910.4 0.3 94
2019-04-01 07:00:00 7.2 3 Oeste 5 Oeste 0.8 910.2 0 95
2019-04-01 06:00:00 7.1 2 Norte 4 Oeste 0 910 -0.5 95
2019-04-01 05:00:00 7.1 2 Sudoeste 5 Oeste 0.4 910.1 -0.6 94
2019-04-01 04:00:00 7.2 2 Oeste 5 Noroeste 1 910.2 -0.6 94
2019-04-01 03:00:00 7.1 3 Oeste 6 Oeste 0.4 910.5 -0.2 94
2019-04-01 02:00:00 6.9 3 Oeste 7 Oeste 0.4 910.7 -0.1 94
2019-04-01 01:00:00 6.6 4 Oeste 11 Oeste 0 910.8 0.2 95
2019-04-01 00:00:00 6.8 5 Oeste 10 Oeste 0.2 910.7 0.7 95
2019-03-31 23:00:00 7 5 Oeste 9 Oeste 0.4 910.8 0.8 96
2019-03-31 22:00:00 7 4 Oeste 8 Oeste 0.4 910.6 0.6 94
2019-03-31 21:00:00 7.4 4 Noroeste 9 Noroeste 1.2 910 -0.1 92
2019-03-31 20:00:00 7.5 4 Oeste 12 Noroeste 2 910 -0.1 93
2019-03-31 19:00:00 7.7 6 Noroeste 10 Noroeste 2.6 910 -0.5 91
2019-03-31 18:00:00 7.4 6 Oeste 14 Oeste 3.2 910.1 -1.1 94
2019-03-31 17:00:00 7 9 Oeste 17 Oeste 2.4 910.1 -1.8 93
2019-03-31 16:00:00 6.8 6 Oeste 12 Oeste 1.6 910.5 -1.8 93
2019-03-31 15:00:00 6.3 5 Noroeste 10 Noroeste 1.4 911.2 -1.4 91
2019-03-31 14:00:00 5.7 6 Norte 10 Noroeste 1.8 911.9 -0.6 89
2019-03-31 13:00:00 5.8 4 Oeste 6 Sudoeste 1.2 912.3 -0.1 89
2019-03-31 12:00:00 5.8 3 Sudoeste 7 Oeste 1 912.6 0 90
2019-03-31 11:00:00 5.7 2 Oeste 7 Oeste 0.6 912.5 0 87
2019-03-31 10:00:00 5.5 2 Noroeste 3 Oeste 0.6 912.4 0.3 87
2019-03-31 09:00:00 4.9 0 Calma 6 Sur 0 912.6 0.1 84
2019-03-31 08:00:00 4.3 3 Sudeste 8 Sur 0 912.5 -0.5 82
2019-03-31 07:00:00 3.9 3 Sur 6 Nordeste 0 912.1 -1.7 82
2019-03-31 06:00:00 3.5 0 Calma 7 Oeste 0 912.5 -1.4 85
2019-03-31 05:00:00 3.4 3 Nordeste 5 Sudoeste 0 913 -1.4 82
2019-03-31 03:00:00 3.5 4 Oeste 8 Oeste 0 913.9 -1.6 83
2019-03-31 01:00:00 4.1 2 Norte 6 Oeste 0 914.4 -1.6 80
2019-03-31 00:00:00 5.4 3 Oeste 6 Oeste 0 914.9 -1.1 76
2019-03-30 23:00:00 6.6 0 Calma 18 Sur 0 915.5 0.4 72
2019-03-30 22:00:00 7.3 8 Sur 16 Sudeste 0 916 2.1 74
2019-03-30 21:00:00 8.5 8 Sur 22 Sur 0 916 2.7 70
2019-03-30 20:00:00 10.1 11 Sur 27 Sur 0 915.1 1.9 63
2019-03-30 19:00:00 12.7 7 Este 27 Sudeste 0 913.9 0.1 54
2019-03-30 18:00:00 15.4 11 Este 24 Sudeste 0 913.3 -1.2 41
2019-03-30 17:00:00 17.6 9 Sudeste 22 Este 0 913.2 -2.1 31
2019-03-30 16:00:00 18.5 8 Sudeste 19 Este 0 913.8 -2.7 28
2019-03-30 15:00:00 18.3 7 Este 19 Sur 0 914.5 -2.7 26
2019-03-30 14:00:00 17.4 6 Sur 13 Sur 0 915.3 -2.7 25
2019-03-30 13:00:00 14.9 5 Sudeste 17 Sur 0 916.5 -2.1 26
2019-03-30 12:00:00 13 6 Sur 12 Sur 0 917.2 -1.9 32
2019-03-30 11:00:00 9.7 3 Este 10 Este 0 918 -1.1 51
2019-03-30 10:00:00 5.6 3 Sur 11 Sur 0 918.6 -0.2 70
2019-03-30 09:00:00 2.3 4 Sur 8 Sur 0 919.1 0.5 82
2019-03-30 08:00:00 -0.1 0 Calma 4 Norte 0 919.1 0.4 89
2019-03-30 07:00:00 -1.9 0 Calma 7 Oeste 0 918.8 -0.3 90
2019-03-30 06:00:00 -1.8 5 Oeste 8 Oeste 0 918.6 -0.9 89
2019-03-30 05:00:00 -1.2 3 Nordeste 4 Nordeste 0 918.7 -1.2 87
2019-03-30 04:00:00 -0.5 2 Noroeste 3 Oeste 0 919.1 -1.2 86
2019-03-30 03:00:00 0.7 0 Calma 4 Sudoeste 0 919.5 -1.1 81
2019-03-30 02:00:00 1.8 0 Calma 5 Este 0 919.9 -0.6 78
2019-03-30 01:00:00 3.1 0 Calma 4 Sudoeste 0 920.3 -0.1 75
2019-03-30 00:00:00 5 0 Calma 15 Sur 0 920.6 0.6 69
2019-03-29 23:00:00 6.9 13 Sur 21 Sur 0 920.5 1 69
2019-03-29 22:00:00 7.4 9 Sudeste 21 Sur 0 920.4 1.5 68
2019-03-29 21:00:00 8.2 11 Sur 28 Sur 0 920 1.5 58
2019-03-29 20:00:00 9.3 8 Sur 26 Sudeste 0 919.5 1 52
2019-03-29 19:00:00 11.6 8 Sudeste 26 Sudeste 0 918.9 0.2 45
2019-03-29 18:00:00 14.6 7 Sudeste 30 Sur 0 918.5 -0.6 36
2019-03-29 17:00:00 16.1 9 Sudeste 24 Sur 0 918.5 -1.2 32
2019-03-29 16:00:00 17.2 12 Sudeste 27 Este 0 918.7 -1.5 29
2019-03-29 15:00:00 17.8 10 Sudeste 32 Este 0 919.1 -1.8 25
2019-03-29 14:00:00 17.7 12 Este 34 Este 0 919.7 -1.8 24
2019-03-29 13:00:00 17.4 11 Este 27 Este 0 920.2 -1.9 24
2019-03-29 12:00:00 15.4 14 Sudeste 35 Este 0 920.9 -1.4 28
2019-03-29 11:00:00 14.3 12 Sudeste 25 Sudeste 0 921.5 -1 29
2019-03-29 10:00:00 7.6 4 Oeste 8 Oeste 0 922.1 -0.2 44
2019-03-29 09:00:00 3.4 3 Este 5 Sudoeste 0 922.3 0.1 63
2019-03-29 08:00:00 -0.3 2 Noroeste 5 Norte 0 922.5 0.5 74
2019-03-29 07:00:00 -1.9 3 Noroeste 5 Oeste 0 922.3 0.2 79
2019-03-29 06:00:00 -1.1 3 Oeste 6 Oeste 0 922.2 -0.1 80
2019-03-29 05:00:00 -0.6 3 Noroeste 7 Oeste 0 922 -0.2 77
2019-03-29 04:00:00 -0.1 2 Noroeste 4 Norte 0 922.1 -0.1 76
2019-03-29 03:00:00 0.6 3 Norte 4 Norte 0 922.3 0 75
2019-03-29 02:00:00 1.6 0 Calma 7 Oeste 0 922.2 -0.1 72
2019-03-29 01:00:00 3.1 2 Noroeste 5 Oeste 0 922.2 -0.2 68
2019-03-29 00:00:00 4.5 2 Sudoeste 4 Sudoeste 0 922.3 0.3 63
2019-03-28 23:00:00 6.2 4 Oeste 8 Oeste 0 922.3 1.3 56
2019-03-28 22:00:00 7.5 5 Sur 17 Sur 0 922.4 2.3 52
2019-03-28 21:00:00 8.9 10 Sur 18 Sur 0 922 2.6 51
2019-03-28 20:00:00 10.4 6 Sudeste 24 Sur 0 921 1.7 47
2019-03-28 19:00:00 13.4 11 Este 28 Sudeste 0 920.1 0.2 37
2019-03-28 18:00:00 16.7 11 Este 23 Este 0 919.4 -1 27
2019-03-28 17:00:00 18.4 7 Oeste 16 Sur 0 919.3 -1.8 19
2019-03-28 16:00:00 17.8 4 Sudeste 18 Oeste 0 919.9 -1.9 19
2019-03-28 15:00:00 17.9 7 Sudoeste 17 Sur 0 920.4 -1.9 19
2019-03-28 14:00:00 17.1 6 Este 13 Nordeste 0 921.1 -1.8 19
2019-03-28 13:00:00 15.1 6 Noroeste 17 Norte 0 921.8 -1.4 20
2019-03-28 12:00:00 14 5 Sudoeste 9 Sudoeste 0 922.3 -1.4 22
2019-03-28 11:00:00 10.8 4 Sur 8 Sur 0 922.9 -0.8 38
2019-03-28 10:00:00 6.7 4 Sur 7 Nordeste 0 923.2 0 45
2019-03-28 09:00:00 3.1 2 Este 6 Norte 0 923.7 0.8 54
2019-03-28 08:00:00 -0.9 0 Calma 5 Oeste 0 923.7 1 70
2019-03-28 07:00:00 -2.5 2 Noroeste 6 Noroeste 0 923.2 0.7 73
2019-03-28 06:00:00 -1.7 3 Noroeste 5 Norte 0 922.9 0.6 72
2019-03-28 05:00:00 -1.4 3 Noroeste 8 Norte 0 922.7 0.5 72
2019-03-28 04:00:00 -0.5 4 Noroeste 7 Noroeste 0 922.5 0.3 70
2019-03-28 03:00:00 -0.4 3 Oeste 5 Oeste 0 922.3 0.5 72
2019-03-28 02:00:00 0.6 3 Oeste 5 Noroeste 0 922.2 0.9 69
2019-03-28 01:00:00 1.7 0 Calma 7 Oeste 0 922.2 1.1 65
2019-03-28 00:00:00 3.5 4 Oeste 6 Oeste 0 921.8 1.3 59
2019-03-27 23:00:00 5.9 4 Oeste 8 Sudeste 0 921.3 1.7 52
2019-03-27 22:00:00 7.2 3 Sudeste 8 Sudeste 0 921.1 2.7 49
2019-03-27 21:00:00 8.8 0 Calma 14 Este 0 920.5 3 45
2019-03-27 20:00:00 10.9 8 Sur 27 Este 0 919.6 2.2 39
2019-03-27 19:00:00 13.6 10 Este 30 Nordeste 0 918.4 0.7 32
2019-03-27 18:00:00 16.2 13 Norte 27 Norte 0 917.5 -0.6 17
2019-03-27 17:00:00 17.6 10 Norte 30 Noroeste 0 917.4 -1.4 15
2019-03-27 16:00:00 17.6 9 Sudoeste 22 Oeste 0 917.7 -2 20
2019-03-27 15:00:00 16.4 11 Oeste 19 Sudoeste 0 918.1 -1.9 23
2019-03-27 14:00:00 14.9 7 Sur 16 Sudoeste 0 918.8 -1.6 27
2019-03-27 13:00:00 13.9 7 Sudoeste 15 Sur 0 919.7 -0.8 26
2019-03-27 12:00:00 11.8 9 Oeste 14 Oeste 0 920 -0.6 34
2019-03-27 11:00:00 9.1 5 Norte 12 Nordeste 0 920.4 0 60
2019-03-27 10:00:00 5.4 6 Noroeste 14 Norte 0 920.5 0.8 74
2019-03-27 09:00:00 2.6 5 Norte 12 Nordeste 0 920.6 1 82
2019-03-27 08:00:00 0.3 3 Nordeste 7 Norte 0 920.4 0.9 77
2019-03-27 07:00:00 -0.6 5 Norte 8 Norte 0 919.7 0.4 75
2019-03-27 06:00:00 -0.2 5 Norte 9 Norte 0 919.6 0.3 80
2019-03-27 05:00:00 1.8 5 Noroeste 9 Noroeste 0 919.5 0.2 79
2019-03-27 04:00:00 2.1 0 Calma 4 Noroeste 0 919.3 0.1 77
2019-03-27 03:00:00 2.4 2 Noroeste 5 Oeste 0 919.3 0.3 82
2019-03-27 02:00:00 2.1 4 Oeste 6 Oeste 0 919.3 0.4 84
2019-03-27 01:00:00 3.5 4 Oeste 6 Oeste 0 919.2 0.9 81
2019-03-27 00:00:00 5.1 3 Norte 7 Norte 0 919 1.5 77
2019-03-26 23:00:00 6 3 Sudoeste 12 Este 0 918.9 2.6 74
2019-03-26 22:00:00 7.2 4 Este 19 Sudeste 0 918.3 2.8 64
2019-03-26 21:00:00 9.4 8 Sudeste 21 Sur 0 917.5 2.7 57
2019-03-26 20:00:00 11.4 8 Este 18 Este 0 916.3 1.8 49
2019-03-26 19:00:00 15.1 7 Este 25 Nordeste 0 915.5 1.2 38
2019-03-26 18:00:00 16.9 15 Nordeste 32 Nordeste 0 914.8 -0.4 9
2019-03-26 17:00:00 18 19 Nordeste 37 Nordeste 0 914.5 -1.3 7
2019-03-26 16:00:00 19.5 12 Sur 20 Oeste 0 914.3 -2.1 19
2019-03-26 15:00:00 17.5 7 Oeste 23 Noroeste 0 915.2 -2 28
2019-03-26 14:00:00 16.2 9 Noroeste 21 Noroeste 0 915.8 -1.9 31
2019-03-26 13:00:00 14.6 9 Oeste 18 Oeste 0 916.4 -1.7 35
2019-03-26 12:00:00 12.3 9 Noroeste 18 Noroeste 0 917.2 -1.3 42
2019-03-26 11:00:00 10.8 4 Sudoeste 9 Sudoeste 0 917.7 -0.8 48
2019-03-26 10:00:00 6.4 4 Nordeste 8 Sur 0 918.1 0.1 61
2019-03-26 09:00:00 2.7 5 Nordeste 8 Norte 0 918.5 1 70
2019-03-26 08:00:00 -0.4 3 Nordeste 6 Nordeste 0 918.5 1.3 80
2019-03-26 07:00:00 -1.7 2 Norte 7 Norte 0 918 0.8 82
2019-03-26 06:00:00 -1.1 5 Norte 6 Norte 0 917.5 0.1 81
2019-03-26 05:00:00 0 3 Noroeste 5 Sudoeste 0 917.2 -0.2 77
2019-03-26 04:00:00 1.1 0 Calma 10 Norte 0 917.2 -0.2 75
2019-03-26 03:00:00 2.4 4 Noroeste 12 Noroeste 0 917.4 0.2 71
2019-03-26 02:00:00 2.9 7 Oeste 12 Oeste 0 917.4 0.4 67
2019-03-26 01:00:00 4 3 Noroeste 13 Noroeste 0 917.4 1 61
2019-03-26 00:00:00 5.1 8 Noroeste 17 Noroeste 0 917.2 1.6 59
2019-03-25 23:00:00 6.4 8 Oeste 14 Noroeste 0 917 2.3 54
2019-03-25 22:00:00 7.9 7 Oeste 17 Noroeste 0 916.4 2.1 49
2019-03-25 21:00:00 10.6 9 Noroeste 20 Noroeste 0 915.6 1.4 40
2019-03-25 20:00:00 12.7 6 Nordeste 19 Nordeste 0 914.7 0.5 37
2019-03-25 19:00:00 16 10 Norte 22 Norte 0 914.3 -0.3 31
2019-03-25 18:00:00 18 9 Norte 22 Noroeste 0 914.2 -1 27
2019-03-25 17:00:00 19.1 10 Noroeste 20 Norte 0 914.2 -2 23
2019-03-25 16:00:00 19.4 7 Norte 18 Norte 0 914.6 -2.6 22
2019-03-25 15:00:00 19.4 8 Nordeste 17 Nordeste 0 915.2 -2.7 22
2019-03-25 14:00:00 18.2 8 Noroeste 24 Noroeste 0 916.2 -2.6 25
2019-03-25 13:00:00 17.4 8 Noroeste 21 Norte 0 917.2 -2 29
2019-03-25 12:00:00 16 4 Nordeste 14 Noroeste 0 917.9 -1.6 35
2019-03-25 11:00:00 13.1 4 Norte 10 Norte 0 918.8 -0.6 39
2019-03-25 10:00:00 8.6 3 Noroeste 9 Norte 0 919.2 0.3 47
2019-03-25 09:00:00 4.5 3 Sur 9 Nordeste 0 919.5 0.6 56
2019-03-25 08:00:00 0.5 4 Norte 7 Nordeste 0 919.4 0.3 67
2019-03-25 07:00:00 -0.8 3 Noroeste 5 Norte 0 918.9 -0.3 72
2019-03-25 06:00:00 -0.4 3 Oeste 7 Nordeste 0 918.9 -0.4 71
2019-03-25 05:00:00 0.4 4 Noroeste 5 Norte 0 919.1 -0.4 67
2019-03-25 04:00:00 1.1 3 Norte 7 Nordeste 0 919.2 -0.4 65
2019-03-25 03:00:00 2.3 3 Noroeste 7 Noroeste 0 919.3 -0.4 62
2019-03-25 02:00:00 3 2 Norte 7 Norte 0 919.5 -0.2 59
2019-03-25 01:00:00 4.2 6 Norte 10 Norte 0 919.6 -0.2 54
2019-03-25 00:00:00 5.3 0 Calma 5 Oeste 0 919.7 0.4 50
2019-03-24 23:00:00 7.1 3 Norte 8 Oeste 0 919.7 1 47
2019-03-24 22:00:00 9.8 4 Oeste 9 Sur 0 919.8 1.7 39
2019-03-24 21:00:00 12.5 3 Sudeste 14 Sur 0 919.3 1.7 29
2019-03-24 20:00:00 14.4 6 Sur 18 Sur 0 918.7 1.2 28
2019-03-24 19:00:00 16.8 11 Sur 21 Sur 0 918.1 0.3 25
2019-03-24 18:00:00 18.8 13 Sur 25 Sur 0 917.6 -0.7 21
2019-03-24 17:00:00 20.9 8 Sudeste 20 Sur 0 917.5 -1.6 19
2019-03-24 16:00:00 21.3 8 Sur 18 Sur 0 917.8 -2 19
2019-03-24 15:00:00 21.6 9 Sudeste 27 Sur 0 918.3 -2.2 18
2019-03-24 14:00:00 21.3 8 Sudeste 21 Sur 0 919.1 -2.2 17
2019-03-24 13:00:00 20 7 Este 18 Sudeste 0 919.8 -2 21
2019-03-24 12:00:00 16.6 5 Sudoeste 10 Sur 0 920.5 -1.1 27
2019-03-24 11:00:00 12.1 5 Sur 9 Sur 0 921.3 -0.1 41
2019-03-24 10:00:00 8.3 4 Este 7 Oeste 0 921.8 0.7 46
2019-03-24 09:00:00 3.7 2 Sur 4 Oeste 0 921.6 0.5 64
2019-03-24 08:00:00 -0.7 3 Oeste 5 Oeste 0 921.4 0.3 80
2019-03-24 07:00:00 -1.3 3 Noroeste 6 Norte 0 921.1 0.1 80
2019-03-24 06:00:00 -0.7 2 Noroeste 5 Norte 0 921.1 -0.1 80
2019-03-24 05:00:00 0.4 4 Noroeste 8 Oeste 0 921.1 -0.2 76
2019-03-24 04:00:00 0.9 4 Norte 7 Nordeste 0 921 -0.4 75
2019-03-24 03:00:00 2.3 2 Noroeste 7 Oeste 0 921.2 -0.3 71
2019-03-24 02:00:00 3.2 4 Norte 9 Noroeste 0 921.3 -0.1 70
2019-03-24 01:00:00 4.4 5 Noroeste 8 Noroeste 0 921.4 0.2 65
2019-03-24 00:00:00 5.5 4 Oeste 6 Oeste 0 921.5 0.4 63
2019-03-23 23:00:00 7.2 0 Calma 7 Sudeste 0 921.4 0.8 58
2019-03-23 22:00:00 9.2 4 Sudeste 12 Sudeste 0 921.2 1 51
2019-03-23 21:00:00 10.4 5 Norte 15 Sur 0 921.1 1.3 44
2019-03-23 20:00:00 12.2 6 Sudeste 21 Sur 0 920.6 1 39
2019-03-23 19:00:00 13.6 7 Sudeste 30 Sudeste 0 920.2 0.5 37
2019-03-23 18:00:00 15.2 12 Sur 35 Sudeste 0 919.8 0 34
2019-03-23 17:00:00 18.6 11 Sudeste 35 Sur 0 919.6 -0.7 29
2019-03-23 16:00:00 19.6 11 Sudeste 29 Sur 0 919.7 -1.1 27
2019-03-23 15:00:00 20.6 11 Sudeste 27 Sur 0 919.8 -1.7 26
2019-03-23 14:00:00 20.7 11 Sudeste 22 Sur 0 920.3 -1.8 27
2019-03-23 13:00:00 18.3 6 Sudeste 16 Sudeste 0 920.8 -2 32
2019-03-23 12:00:00 17.2 4 Este 17 Oeste 0 921.5 -1.5 32
2019-03-23 11:00:00 14.6 5 Oeste 13 Este 0 922.1 -0.9 42
2019-03-23 10:00:00 9.9 3 Norte 8 Nordeste 0 922.8 0 55
2019-03-23 09:00:00 4.3 4 Oeste 9 Oeste 0 923 0.3 73
2019-03-23 08:00:00 0.5 3 Norte 7 Noroeste 0 923 0.5 82
2019-03-23 07:00:00 -0.6 3 Noroeste 6 Norte 0 922.8 0.1 83
2019-03-23 06:00:00 -0.1 3 Noroeste 6 Norte 0 922.7 -0.4 81
2019-03-23 05:00:00 0.2 0 Calma 6 Nordeste 0 922.5 -0.5 80
2019-03-23 04:00:00 0.7 2 Norte 7 Nordeste 0 922.7 -0.4 79
2019-03-23 03:00:00 1.5 2 Norte 9 Norte 0 923.1 -0.2 76
2019-03-23 02:00:00 2.3 5 Norte 9 Norte 0 923 -0.5 73
2019-03-23 01:00:00 3.9 2 Noroeste 9 Norte 0 923.1 0.1 70
2019-03-23 00:00:00 4.6 5 Noroeste 9 Oeste 0 923.3 0.7 68
2019-03-22 23:00:00 6 2 Norte 6 Oeste 0 923.5 1.6 63
2019-03-22 22:00:00 8 6 Oeste 10 Oeste 0 923 1.6 56
2019-03-22 21:00:00 9.9 3 Este 14 Este 0 922.6 1.9 50
2019-03-22 20:00:00 12 5 Sudeste 18 Sudeste 0 921.9 1.1 44
2019-03-22 19:00:00 14.5 10 Sur 21 Sur 0 921.4 0.4 38
2019-03-22 18:00:00 16.4 9 Sudeste 28 Sur 0 920.7 -0.8 33
2019-03-22 17:00:00 17.8 10 Sudeste 26 Sur 0 920.8 -1 31
2019-03-22 16:00:00 17.7 9 Este 19 Sudeste 0 921 -1.5 33
2019-03-22 15:00:00 17 9 Este 19 Sur 0 921.5 -1.3 34
2019-03-22 14:00:00 16.1 6 Sudeste 17 Sur 0 921.8 -1.5 34
2019-03-22 13:00:00 15.7 6 Sur 15 Sur 0 922.5 -1.1 32
2019-03-22 12:00:00 13.4 5 Noroeste 10 Noroeste 0 922.8 -0.9 33
2019-03-22 11:00:00 9.1 5 Sur 11 Norte 0 923.3 -0.3 47
2019-03-22 10:00:00 5.6 3 Sur 8 Sudeste 0 923.6 0.5 54
2019-03-22 09:00:00 2 3 Este 5 Este 0 923.7 1 67
2019-03-22 08:00:00 -2.4 4 Norte 7 Norte 0 923.6 0.9 81
2019-03-22 07:00:00 -3 0 Calma 6 Nordeste 0 923.1 0.5 82
2019-03-22 06:00:00 -2.8 2 Noroeste 7 Noroeste 0 922.7 0 82
2019-03-22 05:00:00 -2.6 4 Noroeste 8 Norte 0 922.7 -0.1 80
2019-03-22 04:00:00 -1.9 5 Norte 7 Oeste 0 922.6 -0.3 80
2019-03-22 03:00:00 -1 3 Norte 9 Nordeste 0 922.7 -0.3 78
2019-03-22 02:00:00 -0.6 4 Noroeste 7 Oeste 0 922.8 0 77
2019-03-22 01:00:00 0.5 2 Oeste 8 Oeste 0 922.9 0.2 73
2019-03-22 00:00:00 1.5 5 Oeste 10 Oeste 0 923 0.8 68
2019-03-21 23:00:00 3.2 6 Oeste 9 Oeste 0 922.8 1.3 61
2019-03-21 22:00:00 5 0 Calma 6 Este 0 922.7 2.1 58
2019-03-21 21:00:00 6.6 4 Sur 16 Sur 0 922.2 2.3 51
2019-03-21 20:00:00 8.3 10 Sur 17 Sudoeste 0 921.5 1.7 45
2019-03-21 19:00:00 11.2 6 Sudeste 24 Sudeste 0 920.6 0.5 36
2019-03-21 18:00:00 14.3 8 Este 24 Sudeste 0 919.9 -0.7 28
2019-03-21 17:00:00 15.1 5 Sudoeste 15 Sur 0 919.8 -1.5 24
2019-03-21 16:00:00 15.6 9 Sur 21 Sur 0 920.1 -2 23
2019-03-21 15:00:00 15.5 16 Este 51 Sur 0 920.6 -2 27
2019-03-21 14:00:00 13.5 5 Noroeste 14 Este 0 921.3 -1.9 27
2019-03-21 13:00:00 12.6 7 Nordeste 18 Oeste 0 922.1 -1.4 31
2019-03-21 12:00:00 11.1 6 Norte 15 Noroeste 0 922.6 -1 35
2019-03-21 11:00:00 7.5 4 Noroeste 12 Oeste 0 923.2 -0.3 50
2019-03-21 10:00:00 3.9 5 Noroeste 8 Noroeste 0 923.5 0.4 56
2019-03-21 09:00:00 0.9 2 Norte 6 Nordeste 0 923.6 0.7 67
2019-03-21 08:00:00 -2.9 3 Norte 8 Norte 0 923.5 1.1 80
2019-03-21 07:00:00 -4 3 Norte 8 Norte 0 923.1 0.6 83
2019-03-21 06:00:00 -3.4 3 Norte 5 Norte 0 922.9 0 82
2019-03-21 05:00:00 -2.5 3 Norte 6 Noroeste 0 922.4 -0.8 80
2019-03-21 04:00:00 -1.9 6 Norte 10 Norte 0 922.5 -0.7 80
2019-03-21 03:00:00 -1.3 4 Norte 6 Oeste 0 922.9 -0.5 78
2019-03-21 02:00:00 -0.1 5 Oeste 8 Oeste 0 923.2 0.1 80
2019-03-21 01:00:00 0.6 3 Noroeste 9 Norte 0 923.2 0.3 79
2019-03-21 00:00:00 2.3 5 Oeste 18 Este 0 923.4 0.9 78